createdAt,value
2022-08-19T00:01:53.791Z,25.58
2022-08-19T00:04:25.469Z,26.85
2022-08-19T00:06:54.617Z,26.60
2022-08-19T00:09:25.767Z,26.65
2022-08-19T00:11:56.728Z,26.42
2022-08-19T00:14:26.707Z,26.90
2022-08-19T00:16:56.407Z,27.60
2022-08-19T00:19:34.463Z,27.15
2022-08-19T00:22:03.533Z,27.20
2022-08-19T00:24:36.041Z,27.60
2022-08-19T00:27:26.025Z,27.63
2022-08-19T00:29:55.622Z,28.75
2022-08-19T00:32:24.051Z,27.58
2022-08-19T00:34:54.530Z,28.02
2022-08-19T00:37:24.158Z,28.45
2022-08-19T00:39:54.286Z,28.00
2022-08-19T00:42:23.991Z,29.20
2022-08-19T00:44:52.759Z,28.67
2022-08-19T00:47:21.332Z,27.48
2022-08-19T00:49:53.612Z,28.85
2022-08-19T00:52:25.743Z,28.80
2022-08-19T00:54:56.034Z,27.73
2022-08-19T00:57:30.107Z,27.40
2022-08-19T01:00:02.937Z,27.63
2022-08-19T01:02:34.577Z,29.85
2022-08-19T01:05:06.873Z,27.58
2022-08-19T01:07:38.238Z,27.17
2022-08-19T01:10:11.185Z,26.70
2022-08-19T01:12:40.412Z,26.05
2022-08-19T01:15:12.026Z,27.05
2022-08-19T01:17:42.759Z,27.58
2022-08-19T01:20:14.770Z,26.65
2022-08-19T01:22:47.946Z,27.17
2022-08-19T01:25:19.610Z,27.63
2022-08-19T01:27:53.556Z,27.40
2022-08-19T01:30:24.356Z,26.05
2022-08-19T01:32:57.976Z,26.70
2022-08-19T01:35:32.793Z,28.30
2022-08-19T01:38:09.345Z,28.08
2022-08-19T01:40:43.203Z,27.92
2022-08-19T01:43:11.930Z,27.00
2022-08-19T01:45:42.167Z,28.02
2022-08-19T01:48:19.868Z,26.70
2022-08-19T01:50:49.170Z,27.20
2022-08-19T01:53:19.135Z,26.65
2022-08-19T01:55:48.232Z,27.20
2022-08-19T01:58:21.957Z,27.95
2022-08-19T02:00:50.801Z,27.38
2022-08-19T02:03:19.522Z,26.75
2022-08-19T02:05:48.266Z,28.98
2022-08-19T02:08:22.665Z,27.20
2022-08-19T02:10:55.331Z,26.65
2022-08-19T02:13:26.289Z,28.20
2022-08-19T02:15:55.240Z,27.88
2022-08-19T02:18:29.480Z,27.42
2022-08-19T02:21:04.258Z,26.83
2022-08-19T02:23:34.301Z,27.98
2022-08-19T02:26:05.705Z,27.98
2022-08-19T02:28:39.143Z,27.42
2022-08-19T02:31:15.369Z,28.08
2022-08-19T02:33:47.324Z,27.30
2022-08-19T02:36:17.271Z,26.60
2022-08-19T02:38:54.983Z,26.98
2022-08-19T02:41:29.273Z,27.90
2022-08-19T02:44:26.362Z,28.25
2022-08-19T02:46:51.815Z,29.35
2022-08-19T02:49:25.643Z,28.13
2022-08-19T02:51:57.120Z,28.45
2022-08-19T02:54:26.617Z,27.33
2022-08-19T02:56:54.873Z,26.88
2022-08-19T02:59:28.729Z,29.05
2022-08-19T03:01:56.933Z,28.27
2022-08-19T03:04:27.795Z,29.38
2022-08-19T03:06:59.580Z,28.58
2022-08-19T03:09:32.784Z,27.98
2022-08-19T03:12:01.177Z,27.92
2022-08-19T03:14:35.187Z,30.33
2022-08-19T03:17:05.411Z,28.48
2022-08-19T03:19:33.980Z,27.92
2022-08-19T03:22:05.007Z,27.58
2022-08-19T03:24:34.897Z,29.42
2022-08-19T03:27:05.369Z,27.13
2022-08-19T03:29:34.678Z,26.98
2022-08-19T03:32:29.699Z,26.77
2022-08-19T03:35:01.687Z,26.63
2022-08-19T03:37:30.887Z,27.10
2022-08-19T03:40:01.057Z,27.48
2022-08-19T03:42:45.353Z,26.95
2022-08-19T03:45:18.713Z,25.17
2022-08-19T03:47:48.701Z,25.38
2022-08-19T03:50:19.740Z,24.88
2022-08-19T03:52:52.518Z,25.25
2022-08-19T03:57:58.628Z,24.60
2022-08-19T04:00:28.436Z,24.38
2022-08-19T04:03:00.189Z,23.60
2022-08-19T04:05:29.769Z,24.75
2022-08-19T04:07:59.931Z,23.67
2022-08-19T04:10:29.800Z,23.08
2022-08-19T04:12:59.576Z,23.45
2022-08-19T04:15:34.424Z,23.73
2022-08-19T04:18:02.651Z,23.50
2022-08-19T04:20:31.288Z,25.50
2022-08-19T04:22:59.410Z,23.25
2022-08-19T04:25:28.941Z,23.55
2022-08-19T04:27:57.013Z,24.40
2022-08-19T04:30:25.312Z,23.73
2022-08-19T04:32:56.377Z,23.63
2022-08-19T04:35:24.993Z,23.42
2022-08-19T04:37:53.268Z,24.88
2022-08-19T04:40:39.569Z,24.45
2022-08-19T04:43:09.591Z,25.02
2022-08-19T04:45:43.526Z,25.63
2022-08-19T04:48:26.360Z,24.13
2022-08-19T04:50:58.505Z,24.98
2022-08-19T04:53:37.644Z,24.27
2022-08-19T04:56:09.479Z,24.88
2022-08-19T04:58:41.025Z,23.88
2022-08-19T05:01:11.250Z,23.75
2022-08-19T05:03:39.498Z,25.42
2022-08-19T05:06:18.180Z,25.25
2022-08-19T05:08:46.745Z,24.50
2022-08-19T05:11:17.752Z,25.40
2022-08-19T05:13:46.882Z,24.23
2022-08-19T05:16:20.565Z,24.67
2022-08-19T05:19:07.233Z,24.25
2022-08-19T05:21:55.146Z,23.83
2022-08-19T05:24:24.665Z,23.27
2022-08-19T05:26:57.492Z,23.17
2022-08-19T05:29:33.474Z,21.92
2022-08-19T05:32:11.550Z,22.67
2022-08-19T05:34:40.252Z,21.88
2022-08-19T05:37:10.726Z,21.83
2022-08-19T05:39:41.491Z,20.98
2022-08-19T05:42:12.704Z,21.60
2022-08-19T05:44:50.310Z,22.05
2022-08-19T05:47:20.549Z,20.85
2022-08-19T05:49:50.904Z,21.25
2022-08-19T05:52:25.990Z,19.90
2022-08-19T05:54:56.598Z,20.08
2022-08-19T05:57:25.368Z,20.30
2022-08-19T05:59:58.081Z,19.20
2022-08-19T06:02:32.515Z,19.90
2022-08-19T06:05:00.840Z,18.65
2022-08-19T06:07:30.642Z,20.65
2022-08-19T06:10:00.959Z,18.33
2022-08-19T06:12:32.788Z,19.25
2022-08-19T06:15:02.219Z,18.73
2022-08-19T06:17:31.675Z,17.95
2022-08-19T06:20:00.673Z,19.13
2022-08-19T06:22:30.579Z,18.52
2022-08-19T06:25:01.996Z,17.98
2022-08-19T06:27:32.120Z,19.25
2022-08-19T06:30:00.368Z,17.83
2022-08-19T06:32:28.921Z,16.77
2022-08-19T06:34:57.210Z,16.90
2022-08-19T06:37:26.382Z,16.92
2022-08-19T06:39:58.303Z,16.20
2022-08-19T06:42:29.164Z,16.65
2022-08-19T06:45:00.167Z,17.45
2022-08-19T06:47:32.031Z,16.02
2022-08-19T06:50:05.390Z,16.05
2022-08-19T06:52:41.344Z,16.05
2022-08-19T06:55:12.632Z,16.48
2022-08-19T06:57:47.768Z,15.63
2022-08-19T07:00:20.178Z,16.48
2022-08-19T07:02:53.237Z,15.88
2022-08-19T07:05:28.749Z,15.70
2022-08-19T07:07:59.723Z,15.95
2022-08-19T07:10:33.723Z,15.73
2022-08-19T07:13:02.178Z,16.30
2022-08-19T07:15:41.744Z,16.17
2022-08-19T07:18:17.361Z,15.68
2022-08-19T07:20:52.509Z,15.82
2022-08-19T07:23:27.097Z,15.65
2022-08-19T07:28:35.471Z,15.60
2022-08-19T07:31:06.760Z,15.40
2022-08-19T07:33:39.922Z,14.90
2022-08-19T07:36:12.395Z,15.68
2022-08-19T07:38:46.269Z,14.68
2022-08-19T07:41:18.283Z,13.95
2022-08-19T07:43:46.788Z,14.47
2022-08-19T07:46:15.591Z,15.07
2022-08-19T07:48:46.748Z,13.50
2022-08-19T07:51:16.518Z,14.13
2022-08-19T07:54:11.505Z,13.07
2022-08-19T07:56:46.995Z,12.93
2022-08-19T07:59:18.627Z,13.15
2022-08-19T08:01:47.271Z,12.60
2022-08-19T08:04:33.723Z,11.88
2022-08-19T08:07:22.634Z,11.70
2022-08-19T08:12:35.167Z,12.13
2022-08-19T08:15:17.367Z,11.57
2022-08-19T08:17:52.094Z,12.27
2022-08-19T08:20:21.834Z,11.82
2022-08-19T08:23:10.679Z,11.15
2022-08-19T08:25:39.606Z,10.68
2022-08-19T08:28:11.201Z,10.68
2022-08-19T08:30:45.310Z,11.52
2022-08-19T08:33:18.591Z,11.70
2022-08-19T08:36:05.042Z,9.88
2022-08-19T08:38:42.756Z,10.60
2022-08-19T08:41:21.554Z,9.98
2022-08-19T08:43:54.810Z,11.18
2022-08-19T08:46:31.645Z,12.18
2022-08-19T08:49:10.553Z,11.13
2022-08-19T08:51:56.193Z,10.13
2022-08-19T08:54:48.839Z,11.48
2022-08-19T08:57:37.079Z,10.68
2022-08-19T09:00:17.703Z,9.45
2022-08-19T09:02:50.906Z,9.45
2022-08-19T09:05:26.073Z,9.70
2022-08-19T09:08:06.436Z,10.10
2022-08-19T09:10:44.207Z,8.63
2022-08-19T09:13:23.556Z,9.07
2022-08-19T09:16:10.134Z,10.00
2022-08-19T09:18:44.907Z,9.95
2022-08-19T09:21:14.219Z,10.60
2022-08-19T09:23:43.719Z,9.63
2022-08-19T09:26:16.578Z,9.55
2022-08-19T09:28:48.876Z,10.32
2022-08-19T09:31:21.393Z,9.68
2022-08-19T09:33:52.305Z,9.40
2022-08-19T09:36:34.634Z,9.20
2022-08-19T09:39:03.818Z,9.73
2022-08-19T09:41:32.927Z,9.82
2022-08-19T09:44:02.694Z,10.32
2022-08-19T09:46:33.478Z,11.85
2022-08-19T09:49:07.451Z,12.48
2022-08-19T09:51:36.579Z,12.05
2022-08-19T09:54:07.226Z,10.90
2022-08-19T09:56:40.414Z,12.82
2022-08-19T09:59:16.958Z,10.93
2022-08-19T10:01:54.522Z,10.63
2022-08-19T10:04:48.162Z,11.68
2022-08-19T10:07:16.989Z,9.95
2022-08-19T10:09:51.891Z,9.48
2022-08-19T10:12:23.940Z,9.25
2022-08-19T10:14:55.474Z,9.95
2022-08-19T10:17:26.887Z,9.55
2022-08-19T10:20:04.089Z,8.98
2022-08-19T10:22:35.115Z,10.07
2022-08-19T10:25:03.553Z,10.20
2022-08-19T10:27:32.252Z,8.95
2022-08-19T10:30:00.695Z,9.82
2022-08-19T10:32:33.873Z,11.02
2022-08-19T10:35:13.533Z,10.27
2022-08-19T10:37:57.119Z,8.75
2022-08-19T10:40:26.062Z,9.75
2022-08-19T10:42:57.396Z,9.30
2022-08-19T10:45:28.835Z,9.57
2022-08-19T10:48:00.430Z,9.00
2022-08-19T10:50:55.042Z,9.60
2022-08-19T10:53:26.515Z,9.98
2022-08-19T10:56:13.076Z,9.60
2022-08-19T10:58:42.857Z,9.57
2022-08-19T11:01:11.382Z,10.02
2022-08-19T11:03:41.577Z,10.43
2022-08-19T11:06:11.018Z,9.63
2022-08-19T11:08:41.810Z,10.73
2022-08-19T11:11:11.609Z,10.00
2022-08-19T11:13:47.585Z,11.00
2022-08-19T11:16:18.861Z,9.65
2022-08-19T11:18:51.581Z,9.20
2022-08-19T11:21:22.406Z,8.02
2022-08-19T11:23:53.663Z,7.25
2022-08-19T11:26:26.633Z,6.78
2022-08-19T11:28:56.209Z,6.80
2022-08-19T11:31:29.211Z,7.20
2022-08-19T11:34:02.612Z,8.02
2022-08-19T11:36:36.312Z,7.03
2022-08-19T11:39:07.824Z,5.97
2022-08-19T11:41:37.704Z,6.00
2022-08-19T11:44:07.857Z,6.50
2022-08-19T11:46:41.246Z,6.03
2022-08-19T11:49:20.111Z,6.60
2022-08-19T11:51:51.131Z,6.72
2022-08-19T11:54:22.924Z,6.80
2022-08-19T11:56:53.579Z,6.37
2022-08-19T11:59:25.546Z,6.75
2022-08-19T12:01:53.838Z,6.50
2022-08-19T12:04:24.938Z,6.78
2022-08-19T12:06:54.134Z,6.93
2022-08-19T12:09:23.390Z,7.38
2022-08-19T12:11:52.157Z,7.57
2022-08-19T12:14:20.875Z,7.07
2022-08-19T12:16:50.948Z,7.30
2022-08-19T12:19:21.966Z,7.25
2022-08-19T12:21:54.022Z,5.47
2022-08-19T12:24:24.395Z,6.57
2022-08-19T12:26:54.067Z,6.68
2022-08-19T12:29:30.643Z,6.85
2022-08-19T12:32:02.250Z,6.47
2022-08-19T12:34:33.303Z,6.88
2022-08-19T12:37:05.551Z,6.60
2022-08-19T12:39:36.979Z,6.13
2022-08-19T12:42:07.043Z,6.88
2022-08-19T12:44:35.278Z,5.75
2022-08-19T12:47:05.403Z,5.50
2022-08-19T12:49:54.647Z,6.10
2022-08-19T12:52:28.024Z,6.05
2022-08-19T12:54:58.321Z,5.25
2022-08-19T12:57:32.986Z,5.30
2022-08-19T13:00:05.259Z,5.65
2022-08-19T13:02:38.992Z,4.93
2022-08-19T13:05:10.728Z,4.85
2022-08-19T13:07:41.684Z,5.15
2022-08-19T13:10:16.897Z,5.07
2022-08-19T13:12:50.149Z,5.03
2022-08-19T13:15:23.729Z,4.90
2022-08-19T13:17:54.771Z,5.25
2022-08-19T13:20:24.315Z,4.90
2022-08-19T13:22:58.284Z,4.93
2022-08-19T13:25:26.502Z,5.60
2022-08-19T13:27:56.680Z,5.38
2022-08-19T13:30:48.179Z,5.25
2022-08-19T13:33:17.035Z,4.78
2022-08-19T13:35:51.877Z,4.95
2022-08-19T13:38:24.359Z,4.68
2022-08-19T13:43:34.046Z,4.45
2022-08-19T13:46:15.027Z,4.28
2022-08-19T13:48:48.222Z,4.38
2022-08-19T13:51:29.899Z,4.38
2022-08-19T13:53:59.690Z,4.10
2022-08-19T13:56:31.165Z,4.63
2022-08-19T13:58:59.659Z,4.03
2022-08-19T14:01:31.578Z,4.30
2022-08-19T14:04:00.141Z,4.10
2022-08-19T14:06:29.107Z,3.95
2022-08-19T14:08:58.233Z,4.07
2022-08-19T14:11:28.973Z,4.00
2022-08-19T14:13:57.523Z,4.03
2022-08-19T14:16:31.416Z,4.20
2022-08-19T14:19:00.107Z,4.10
2022-08-19T14:21:28.544Z,4.57
2022-08-19T14:23:57.475Z,4.95
2022-08-19T14:26:29.903Z,4.18
2022-08-19T14:29:04.758Z,4.40
2022-08-19T14:31:33.628Z,4.53
2022-08-19T14:34:02.001Z,4.47
2022-08-19T14:36:31.025Z,4.32
2022-08-19T14:39:01.243Z,4.43
2022-08-19T14:41:31.218Z,4.53
2022-08-19T14:43:59.889Z,4.18
2022-08-19T14:46:30.494Z,4.30
2022-08-19T14:48:59.826Z,4.13
2022-08-19T14:51:28.589Z,4.20
2022-08-19T14:53:57.401Z,3.75
2022-08-19T14:56:28.554Z,4.55
2022-08-19T14:59:01.513Z,4.05
2022-08-19T15:01:37.158Z,4.45
2022-08-19T15:04:06.101Z,4.32
2022-08-19T15:06:35.364Z,3.95
2022-08-19T15:09:07.199Z,4.55
2022-08-19T15:11:35.616Z,4.07
2022-08-19T15:14:09.564Z,5.43
2022-08-19T15:16:41.963Z,4.45
2022-08-19T15:19:10.798Z,4.65
2022-08-19T15:21:39.150Z,4.40
2022-08-19T15:24:08.098Z,4.22
2022-08-19T15:26:37.153Z,4.00
2022-08-19T15:29:08.308Z,4.57
2022-08-19T15:31:38.741Z,4.40
2022-08-19T15:34:10.289Z,4.40
2022-08-19T15:36:45.043Z,4.47
2022-08-19T15:39:13.361Z,4.57
2022-08-19T15:41:46.204Z,4.80
2022-08-19T15:44:22.475Z,4.43
2022-08-19T15:46:51.735Z,4.45
2022-08-19T15:49:39.426Z,5.00
2022-08-19T15:52:15.892Z,4.90
2022-08-19T15:54:50.919Z,4.68
2022-08-19T15:57:46.890Z,4.55
2022-08-19T16:00:35.050Z,4.70
2022-08-19T16:03:20.720Z,4.53
2022-08-19T16:06:08.225Z,4.65
2022-08-19T16:08:49.115Z,4.63
2022-08-19T16:11:21.294Z,4.60
2022-08-19T16:13:54.256Z,4.63
2022-08-19T16:16:31.067Z,4.75
2022-08-19T16:19:15.168Z,4.93
2022-08-19T16:21:47.646Z,4.82
2022-08-19T16:24:19.034Z,5.05
2022-08-19T16:26:59.639Z,4.70
2022-08-19T16:29:34.683Z,4.50
2022-08-19T16:32:23.743Z,4.80
2022-08-19T16:35:06.668Z,4.85
2022-08-19T16:37:36.187Z,5.05
2022-08-19T16:40:05.572Z,5.07
2022-08-19T16:42:37.505Z,4.80
2022-08-19T16:45:08.992Z,5.20
2022-08-19T16:47:41.606Z,5.65
2022-08-19T16:52:38.195Z,4.63
2022-08-19T16:55:08.609Z,4.85
2022-08-19T16:57:37.712Z,4.90
2022-08-19T17:00:11.970Z,4.82
2022-08-19T17:02:50.228Z,5.25
2022-08-19T17:05:19.150Z,5.07
2022-08-19T17:07:56.612Z,4.50
2022-08-19T17:10:25.635Z,5.00
2022-08-19T17:12:54.924Z,4.72
2022-08-19T17:15:23.724Z,5.22
2022-08-19T17:17:56.941Z,4.72
2022-08-19T17:20:25.296Z,5.40
2022-08-19T17:23:00.238Z,5.15
2022-08-19T17:25:31.647Z,5.05
2022-08-19T17:28:07.210Z,5.65
2022-08-19T17:30:35.465Z,6.07
2022-08-19T17:33:05.905Z,6.05
2022-08-19T17:35:35.454Z,6.38
2022-08-19T17:38:05.791Z,6.00
2022-08-19T17:40:34.472Z,6.30
2022-08-19T17:43:04.462Z,7.07
2022-08-19T17:45:33.023Z,6.90
2022-08-19T17:48:02.251Z,6.82
2022-08-19T17:50:35.807Z,5.90
2022-08-19T17:53:05.497Z,5.90
2022-08-19T17:55:36.289Z,6.55
2022-08-19T17:58:05.606Z,6.25
2022-08-19T18:00:53.332Z,6.05
2022-08-19T18:03:22.490Z,6.32
2022-08-19T18:05:53.820Z,7.15
2022-08-19T18:08:42.762Z,7.03
2022-08-19T18:11:22.203Z,6.57
2022-08-19T18:13:57.806Z,6.65
2022-08-19T18:16:35.991Z,7.10
2022-08-19T18:19:15.157Z,6.90
2022-08-19T18:21:54.942Z,6.72
2022-08-19T18:24:25.411Z,7.15
2022-08-19T18:26:56.872Z,6.90
2022-08-19T18:29:34.445Z,7.32
2022-08-19T18:32:06.379Z,6.78
2022-08-19T18:34:40.933Z,6.57
2022-08-19T18:37:16.757Z,7.10
2022-08-19T18:40:03.346Z,7.75
2022-08-19T18:42:54.675Z,7.97
2022-08-19T18:45:43.674Z,7.35
2022-08-19T18:48:33.562Z,7.47
2022-08-19T18:51:02.955Z,6.78
2022-08-19T18:53:35.524Z,7.38
2022-08-19T18:56:03.883Z,7.50
2022-08-19T18:58:34.738Z,7.53
2022-08-19T19:01:11.424Z,7.47
2022-08-19T19:03:41.783Z,8.20
2022-08-19T19:06:09.781Z,8.70
2022-08-19T19:08:41.003Z,8.32
2022-08-19T19:11:09.493Z,8.05
2022-08-19T19:13:39.842Z,7.93
2022-08-19T19:16:09.595Z,7.75
2022-08-19T19:18:38.013Z,8.73
2022-08-19T19:21:06.385Z,7.55
2022-08-19T19:23:34.715Z,8.27
2022-08-19T19:26:04.456Z,7.72
2022-08-19T19:28:33.184Z,8.50
2022-08-19T19:31:01.142Z,7.88
2022-08-19T19:33:29.600Z,7.93
2022-08-19T19:35:57.942Z,7.45
2022-08-19T19:38:25.995Z,6.45
2022-08-19T19:40:54.036Z,7.00
2022-08-19T19:43:23.590Z,6.50
2022-08-19T19:45:52.154Z,5.95
2022-08-19T19:48:20.106Z,5.93
2022-08-19T19:50:53.887Z,7.07
2022-08-19T19:53:26.139Z,6.00
2022-08-19T19:55:57.606Z,5.80
2022-08-19T19:58:28.399Z,5.68
2022-08-19T20:00:57.901Z,5.85
2022-08-19T20:03:26.194Z,6.07
2022-08-19T20:05:54.920Z,5.25
2022-08-19T20:08:40.486Z,5.80
2022-08-19T20:11:08.686Z,6.13
2022-08-19T20:13:40.678Z,5.35
2022-08-19T20:16:09.195Z,5.93
2022-08-19T20:18:38.822Z,5.20
2022-08-19T20:21:07.398Z,5.55
2022-08-19T20:23:35.717Z,5.70
2022-08-19T20:26:03.657Z,5.65
2022-08-19T20:28:31.862Z,5.70
2022-08-19T20:31:01.830Z,6.13
2022-08-19T20:33:32.229Z,5.82
2022-08-19T20:36:00.357Z,5.57
2022-08-19T20:38:28.447Z,6.47
2022-08-19T20:40:56.530Z,5.47
2022-08-19T20:43:24.544Z,5.72
2022-08-19T20:45:52.699Z,6.28
2022-08-19T20:48:22.116Z,5.50
2022-08-19T20:50:50.556Z,6.22
2022-08-19T20:53:20.581Z,6.20
2022-08-19T20:55:50.338Z,6.25
2022-08-19T20:58:21.129Z,5.70
2022-08-19T21:00:50.859Z,5.25
2022-08-19T21:03:23.234Z,5.75
2022-08-19T21:05:52.007Z,6.70
2022-08-19T21:08:20.062Z,5.57
2022-08-19T21:10:49.811Z,5.18
2022-08-19T21:13:18.984Z,5.55
2022-08-19T21:15:47.428Z,5.55
2022-08-19T21:18:17.516Z,5.40
2022-08-19T21:20:47.642Z,5.57
2022-08-19T21:23:21.596Z,5.57
2022-08-19T21:25:54.749Z,5.35
2022-08-19T21:28:34.596Z,5.72
2022-08-19T21:31:06.568Z,5.47
2022-08-19T21:33:34.836Z,5.60
2022-08-19T21:36:06.436Z,5.40
2022-08-19T21:38:37.439Z,5.47
2022-08-19T21:41:06.875Z,5.50
2022-08-19T21:43:35.581Z,5.85
2022-08-19T21:46:04.148Z,6.15
2022-08-19T21:48:32.859Z,5.68
2022-08-19T21:51:01.030Z,12.38
2022-08-19T21:53:34.529Z,5.50
2022-08-19T21:56:03.446Z,6.13
2022-08-19T21:58:31.634Z,6.20
2022-08-19T22:01:00.002Z,6.13
2022-08-19T22:03:28.422Z,7.30
2022-08-19T22:05:56.715Z,5.93
2022-08-19T22:08:25.105Z,5.72
2022-08-19T22:10:55.162Z,6.05
2022-08-19T22:13:23.449Z,5.95
2022-08-19T22:15:52.556Z,5.78
2022-08-19T22:18:20.514Z,5.97
2022-08-19T22:20:49.076Z,5.60
2022-08-19T22:23:17.112Z,5.70
2022-08-19T22:25:47.296Z,6.05
2022-08-19T22:28:27.588Z,5.45
2022-08-19T22:30:56.275Z,5.57
2022-08-19T22:33:25.693Z,5.05
2022-08-19T22:35:54.696Z,4.68
2022-08-19T22:38:23.169Z,4.10
2022-08-19T22:40:52.312Z,4.20
2022-08-19T22:43:23.970Z,4.03
2022-08-19T22:45:53.821Z,3.70
2022-08-19T22:48:23.977Z,3.80
2022-08-19T22:56:54.747Z,3.10
2022-08-19T22:59:24.290Z,3.40
2022-08-19T23:01:52.268Z,3.45
2022-08-19T23:04:21.012Z,3.17
2022-08-19T23:06:49.008Z,3.28
2022-08-19T23:09:17.300Z,2.80
2022-08-19T23:11:46.289Z,2.90
2022-08-19T23:14:16.208Z,2.85
2022-08-19T23:16:50.690Z,3.10
2022-08-19T23:19:19.544Z,2.72
2022-08-19T23:21:47.590Z,2.60
2022-08-19T23:24:15.656Z,2.53
2022-08-19T23:27:04.375Z,2.50
2022-08-19T23:29:50.258Z,2.83
2022-08-19T23:32:20.144Z,2.40
2022-08-19T23:34:48.866Z,2.33
2022-08-19T23:37:17.184Z,2.78
2022-08-19T23:39:45.453Z,2.70
2022-08-19T23:42:14.042Z,2.30
2022-08-19T23:44:51.346Z,2.33
2022-08-19T23:47:22.322Z,2.40
2022-08-19T23:49:50.884Z,2.85
2022-08-19T23:52:19.079Z,2.33
2022-08-19T23:54:47.253Z,2.30
2022-08-19T23:57:15.215Z,2.13
2022-08-19T23:59:45.227Z,2.47
